Time;durP1;ratioP1;P1;durP2;ratioP2;P2;SDS_P1;SDS_P2;PMS_P1;PMS_P2;Temp;Humidity;BMP_temperature;BMP_pressure;BME280_temperature;BME280_humidity;BME280_pressure;Samples;Min_cycle;Max_cycle;Signal;HPM_P1;HPM_P2
2023/01/04 00:00:39;;;;;;;;;;;;;;;4.56;100.00;99291.59;5116249;28;19954;-75
2023/01/04 00:03:05;;;;;;;;;;;;;;;4.86;100.00;99293.03;5101527;28;19990;-75
2023/01/04 00:05:32;;;;;;;;;;;;;;;4.69;100.00;99282.94;5119729;28;19934;-75
2023/01/04 00:07:58;;;;;;;;;;;;;;;4.54;100.00;99280.38;5097687;28;19924;-75
2023/01/04 00:10:26;;;;;;;;;;;;;;;4.74;100.00;99283.16;5097234;28;19924;-75
2023/01/04 00:12:52;;;;;;;;;;;;;;;4.95;100.00;99280.50;5118153;28;20011;-75
2023/01/04 00:15:19;;;;;;;;;;;;;;;4.92;100.00;99288.00;5118954;28;19995;-75
2023/01/04 00:17:45;;;;;;;;;;;;;;;4.77;100.00;99285.44;5117680;28;19959;-75
2023/01/04 00:20:11;;;;;;;;;;;;;;;4.59;100.00;99282.44;5096807;28;19928;-75
2023/01/04 00:22:38;;;;;;;;;;;;;;;4.88;100.00;99282.28;5114908;28;19992;-75
2023/01/04 00:25:05;;;;;;;;;;;;;;;4.68;100.00;99276.00;5113983;28;19920;-74
2023/01/04 00:27:32;;;;;;;;;;;;;;;4.73;100.00;99269.16;5114261;28;20040;-75
2023/01/04 00:29:59;;;;;;;;;;;;;;;4.47;100.00;99268.09;5114601;28;20526;-75
2023/01/04 00:32:25;;;;;;;;;;;;;;;4.35;100.00;99267.81;5114562;28;19950;-75
2023/01/04 00:34:51;;;;;;;;;;;;;;;4.21;100.00;99268.66;5116858;28;19955;-75
2023/01/04 00:37:18;;;;;;;;;;;;;;;3.98;100.00;99270.69;5117719;28;19981;-75
2023/01/04 00:39:44;;;;;;;;;;;;;;;3.86;100.00;99265.09;5098526;28;19932;-75
2023/01/04 00:42:11;;;;;;;;;;;;;;;3.64;100.00;99266.88;5096967;28;19920;-74
2023/01/04 00:44:38;;;;;;;;;;;;;;;3.64;100.00;99258.94;5115290;28;20003;-74
2023/01/04 00:47:05;;;;;;;;;;;;;;;3.80;100.00;99253.44;5118108;28;20002;-74
2023/01/04 00:49:31;;;;;;;;;;;;;;;4.22;100.00;99250.00;5099859;28;19934;-75
2023/01/04 00:51:58;;;;;;;;;;;;;;;4.36;100.00;99250.94;5096569;28;19956;-76
2023/01/04 00:54:24;;;;;;;;;;;;;;;4.36;100.00;99246.44;5109799;28;19924;-76
2023/01/04 00:56:51;;;;;;;;;;;;;;;3.95;100.00;99245.47;5101049;28;19974;-76
2023/01/04 00:59:18;;;;;;;;;;;;;;;3.73;100.00;99241.16;5117788;28;19947;-76
2023/01/04 01:01:47;;;;;;;;;;;;;;;3.55;100.00;99241.56;5098396;28;19967;-76
2023/01/04 01:04:14;;;;;;;;;;;;;;;3.96;100.00;99241.00;5116317;28;19931;-75
2023/01/04 01:06:40;;;;;;;;;;;;;;;4.00;100.00;99244.88;5117472;28;19963;-76
2023/01/04 01:09:07;;;;;;;;;;;;;;;4.32;100.00;99254.97;5119003;28;19924;-76
2023/01/04 01:11:35;;;;;;;;;;;;;;;4.88;100.00;99251.34;5100587;28;19920;-76
2023/01/04 01:14:02;;;;;;;;;;;;;;;4.78;100.00;99260.63;5096099;28;19924;-75
2023/01/04 01:16:28;;;;;;;;;;;;;;;4.33;100.00;99267.97;5114278;28;19951;-76
2023/01/04 01:18:56;;;;;;;;;;;;;;;3.78;100.00;99262.53;5117652;28;20019;-75
2023/01/04 01:21:23;;;;;;;;;;;;;;;3.55;100.00;99270.63;5117747;28;19979;-74
2023/01/04 01:23:50;;;;;;;;;;;;;;;3.54;100.00;99270.78;5115316;28;19963;-74
2023/01/04 01:26:18;;;;;;;;;;;;;;;3.60;100.00;99281.44;5105200;28;20122;-75
2023/01/04 01:28:44;;;;;;;;;;;;;;;4.02;100.00;99275.44;5096976;28;19983;-75
2023/01/04 01:31:12;;;;;;;;;;;;;;;4.46;100.00;99280.50;5117692;28;19983;-75
2023/01/04 01:33:39;;;;;;;;;;;;;;;4.67;100.00;99269.09;5117207;28;19926;-75
2023/01/04 01:36:07;;;;;;;;;;;;;;;4.65;100.00;99263.16;5114056;28;19958;-74
2023/01/04 01:38:33;;;;;;;;;;;;;;;4.50;100.00;99259.78;5116042;28;19924;-75
2023/01/04 01:41:00;;;;;;;;;;;;;;;4.67;100.00;99261.16;5103159;28;19934;-75
2023/01/04 01:43:41;;;;;;;;;;;;;;;4.85;100.00;99259.66;5121318;28;19924;-75
2023/01/04 01:46:07;;;;;;;;;;;;;;;5.12;100.00;99259.81;5099078;28;19940;-75
2023/01/04 01:48:34;;;;;;;;;;;;;;;4.21;100.00;99253.63;5118062;28;19924;-75
2023/01/04 01:51:01;;;;;;;;;;;;;;;4.08;100.00;99242.94;5100157;28;19939;-75
2023/01/04 01:53:31;;;;;;;;;;;;;;;3.64;100.00;99251.03;5121513;28;19925;-75
2023/01/04 01:55:59;;;;;;;;;;;;;;;3.43;100.00;99258.06;5091149;28;19970;-75
2023/01/04 01:58:28;;;;;;;;;;;;;;;3.35;100.00;99255.50;5099368;28;19952;-75
2023/01/04 02:00:54;;;;;;;;;;;;;;;3.57;100.00;99247.47;5120045;28;19935;-75
2023/01/04 02:03:22;;;;;;;;;;;;;;;3.25;100.00;99242.59;5102766;28;19966;-75
2023/01/04 02:05:51;;;;;;;;;;;;;;;3.12;100.00;99245.09;5119083;28;19951;-75
2023/01/04 02:08:18;;;;;;;;;;;;;;;3.03;100.00;99239.06;5117467;28;19931;-75
2023/01/04 02:10:46;;;;;;;;;;;;;;;3.00;100.00;99231.50;5100623;28;19924;-75
2023/01/04 02:13:15;;;;;;;;;;;;;;;2.88;100.00;99227.69;5102622;28;19930;-75
2023/01/04 02:15:48;;;;;;;;;;;;;;;2.87;100.00;99239.25;5101591;28;19952;-75
2023/01/04 02:18:17;;;;;;;;;;;;;;;2.98;100.00;99238.78;5117457;28;19932;-75
2023/01/04 02:20:46;;;;;;;;;;;;;;;3.06;100.00;99243.19;5099966;28;19995;-75
2023/01/04 02:23:42;;;;;;;;;;;;;;;3.22;100.00;99235.88;5102053;28;19997;-75
2023/01/04 02:26:24;;;;;;;;;;;;;;;3.65;100.00;99236.00;5108472;28;19924;-75
2023/01/04 02:29:05;;;;;;;;;;;;;;;3.87;100.00;99221.78;5107558;28;19927;-75
2023/01/04 02:31:37;;;;;;;;;;;;;;;3.67;100.00;99226.88;5101525;28;19927;-75
2023/01/04 02:34:07;;;;;;;;;;;;;;;3.67;100.00;99213.66;5116673;28;19964;-75
2023/01/04 02:36:37;;;;;;;;;;;;;;;3.62;100.00;99221.31;5098449;28;20549;-75
2023/01/04 02:39:08;;;;;;;;;;;;;;;3.69;100.00;99210.81;5116678;28;19951;-76
2023/01/04 02:41:40;;;;;;;;;;;;;;;3.79;100.00;99209.53;5099435;28;19924;-75
2023/01/04 02:46:59;;;;;;;;;;;;;;;3.17;100.00;99203.94;5119035;28;19925;-75
2023/01/04 02:52:09;;;;;;;;;;;;;;;2.82;100.00;99191.47;5131987;27;19923;-76
2023/01/04 02:54:37;;;;;;;;;;;;;;;2.61;100.00;99194.84;5116607;28;19924;-76
2023/01/04 02:57:12;;;;;;;;;;;;;;;2.80;100.00;99198.78;5112025;28;19920;-75
2023/01/04 02:59:50;;;;;;;;;;;;;;;2.77;100.00;99203.59;5120533;28;19954;-76
2023/01/04 03:08:01;;;;;;;;;;;;;;;2.71;100.00;99195.41;5102300;28;19950;-76
2023/01/04 03:10:32;;;;;;;;;;;;;;;2.82;100.00;99196.75;5120957;28;19966;-76
2023/01/04 03:13:02;;;;;;;;;;;;;;;2.74;100.00;99196.84;5116441;28;19924;-76
2023/01/04 03:15:30;;;;;;;;;;;;;;;2.65;100.00;99180.31;5097796;28;19920;-76
2023/01/04 03:17:59;;;;;;;;;;;;;;;2.86;100.00;99190.13;5118620;28;19924;-76
2023/01/04 03:20:28;;;;;;;;;;;;;;;2.93;100.00;99185.75;5100758;28;19988;-76
2023/01/04 03:36:52;;;;;;;;;;;;;;;2.77;100.00;99191.22;5067309;28;19920;-77
2023/01/04 03:50:34;;;;;;;;;;;;;;;3.05;100.00;99180.81;5097238;28;19924;-76
2023/01/04 03:53:01;;;;;;;;;;;;;;;3.19;100.00;99180.81;5115600;28;19959;-76
2023/01/04 03:55:29;;;;;;;;;;;;;;;2.92;100.00;99178.00;5089029;28;19959;-76
2023/01/04 03:57:56;;;;;;;;;;;;;;;3.00;100.00;99176.09;5115491;28;19930;-76
2023/01/04 04:00:22;;;;;;;;;;;;;;;2.99;100.00;99176.28;5114969;28;19975;-76
2023/01/04 04:02:48;;;;;;;;;;;;;;;2.91;100.00;99174.56;5099479;28;19983;-76
2023/01/04 04:10:46;;;;;;;;;;;;;;;2.64;100.00;99169.91;5098049;28;19931;-75
2023/01/04 04:13:13;;;;;;;;;;;;;;;2.51;100.00;99167.09;5100503;28;20007;-75
2023/01/04 04:15:39;;;;;;;;;;;;;;;2.48;100.00;99159.53;5100048;28;20037;-75
2023/01/04 04:18:06;;;;;;;;;;;;;;;2.64;100.00;99160.19;5097922;28;19930;-75
2023/01/04 04:20:32;;;;;;;;;;;;;;;2.66;100.00;99160.03;5096693;28;19970;-75
2023/01/04 04:22:59;;;;;;;;;;;;;;;3.71;100.00;99163.91;5118114;28;19923;-75
2023/01/04 04:25:27;;;;;;;;;;;;;;;3.36;100.00;99147.09;5111327;28;19927;-76
2023/01/04 04:27:53;;;;;;;;;;;;;;;2.96;100.00;99145.00;5090860;28;19997;-75
2023/01/04 04:30:19;;;;;;;;;;;;;;;2.86;100.00;99147.91;5118097;28;19963;-75
2023/01/04 04:32:46;;;;;;;;;;;;;;;2.79;100.00;99136.44;5116811;28;19924;-75
2023/01/04 04:35:12;;;;;;;;;;;;;;;2.60;100.00;99140.44;5096695;28;19954;-76
2023/01/04 04:37:39;;;;;;;;;;;;;;;2.48;100.00;99134.00;5097109;28;19924;-75
2023/01/04 04:40:06;;;;;;;;;;;;;;;2.48;100.00;99134.00;5118163;28;19934;-75
2023/01/04 04:42:32;;;;;;;;;;;;;;;2.52;100.00;99123.91;5118181;28;19963;-75
2023/01/04 04:44:59;;;;;;;;;;;;;;;2.48;100.00;99130.53;5096439;28;20017;-76
2023/01/04 04:47:25;;;;;;;;;;;;;;;2.71;100.00;99133.91;5114571;28;19924;-75
2023/01/04 04:49:51;;;;;;;;;;;;;;;3.28;100.00;99141.91;5116992;28;19991;-75
2023/01/04 04:52:18;;;;;;;;;;;;;;;3.10;100.00;99138.84;5118080;28;19935;-75
2023/01/04 04:54:44;;;;;;;;;;;;;;;2.96;100.00;99129.97;5090195;28;19970;-75
2023/01/04 04:57:10;;;;;;;;;;;;;;;3.28;100.00;99134.81;5110909;28;19951;-75
2023/01/04 04:59:38;;;;;;;;;;;;;;;3.19;100.00;99128.00;5099585;28;19919;-75
2023/01/04 05:02:04;;;;;;;;;;;;;;;2.85;100.00;99124.38;5097106;28;20027;-75
2023/01/04 05:04:31;;;;;;;;;;;;;;;2.75;100.00;99127.28;5099396;28;19920;-76
2023/01/04 05:06:57;;;;;;;;;;;;;;;2.88;100.00;99127.41;5099062;28;19928;-75
2023/01/04 05:09:24;;;;;;;;;;;;;;;2.87;100.00;99125.00;5118336;28;19930;-75
2023/01/04 05:14:50;;;;;;;;;;;;;;;2.67;100.00;99133.47;5077004;28;19955;-76
2023/01/04 05:17:17;;;;;;;;;;;;;;;2.72;100.00;99131.06;5064335;28;19925;-75
2023/01/04 05:19:43;;;;;;;;;;;;;;;2.77;100.00;99124.44;5069402;28;19928;-75
2023/01/04 05:22:09;;;;;;;;;;;;;;;2.82;100.00;99127.34;5103771;28;19923;-75
2023/01/04 05:24:36;;;;;;;;;;;;;;;2.65;100.00;99121.47;5095033;28;19928;-75
2023/01/04 05:27:02;;;;;;;;;;;;;;;2.62;100.00;99116.56;5091595;28;19928;-75
2023/01/04 05:32:14;;;;;;;;;;;;;;;2.94;100.00;99110.84;5118292;28;19939;-75
2023/01/04 05:34:40;;;;;;;;;;;;;;;2.80;100.00;99111.72;5118861;28;19924;-75
2023/01/04 05:37:07;;;;;;;;;;;;;;;2.99;100.00;99116.41;5103557;28;19967;-75
2023/01/04 05:39:33;;;;;;;;;;;;;;;3.05;100.00;99120.94;5121914;28;19951;-75
2023/01/04 05:44:43;;;;;;;;;;;;;;;3.76;100.00;99132.44;5119364;28;19948;-75
2023/01/04 05:47:10;;;;;;;;;;;;;;;4.07;100.00;99122.34;5103323;28;19962;-75
2023/01/04 05:49:38;;;;;;;;;;;;;;;3.78;100.00;99119.84;5103429;28;19934;-75
2023/01/04 05:52:04;;;;;;;;;;;;;;;3.53;100.00;99122.06;5100942;28;19970;-75
2023/01/04 05:54:31;;;;;;;;;;;;;;;3.52;100.00;99116.97;5116153;27;20359;-75
2023/01/04 05:56:57;;;;;;;;;;;;;;;4.08;100.00;99121.34;5121970;27;19924;-75
2023/01/04 05:59:23;;;;;;;;;;;;;;;3.86;100.00;99119.75;5122207;28;19924;-75
2023/01/04 06:01:50;;;;;;;;;;;;;;;3.66;100.00;99116.09;5103091;28;19935;-75
2023/01/04 06:04:16;;;;;;;;;;;;;;;3.91;100.00;99119.97;5119993;28;19924;-75
2023/01/04 06:06:44;;;;;;;;;;;;;;;3.57;100.00;99106.66;5119884;28;19950;-75
2023/01/04 06:09:10;;;;;;;;;;;;;;;3.32;100.00;99114.13;5104546;28;19924;-75
2023/01/04 06:11:37;;;;;;;;;;;;;;;3.35;100.00;99105.00;5122246;28;19999;-75
2023/01/04 06:14:03;;;;;;;;;;;;;;;3.54;100.00;99107.84;5100918;28;19924;-76
2023/01/04 06:16:29;;;;;;;;;;;;;;;3.38;100.00;99094.06;5118453;28;19974;-75
2023/01/04 06:18:56;;;;;;;;;;;;;;;3.40;100.00;99107.94;5122118;28;19927;-76
2023/01/04 06:21:24;;;;;;;;;;;;;;;3.36;100.00;99101.38;5121951;28;19924;-75
2023/01/04 06:23:52;;;;;;;;;;;;;;;3.19;100.00;99092.88;5119658;28;19920;-75
2023/01/04 06:26:19;;;;;;;;;;;;;;;3.20;100.00;99089.22;5091886;28;19931;-75
2023/01/04 06:28:45;;;;;;;;;;;;;;;3.16;100.00;99087.97;5099379;28;19995;-76
2023/01/04 06:31:12;;;;;;;;;;;;;;;3.16;100.00;99087.97;5098908;28;19931;-75
2023/01/04 06:33:38;;;;;;;;;;;;;;;3.15;100.00;99084.53;5117605;28;19946;-75
2023/01/04 06:36:05;;;;;;;;;;;;;;;3.11;100.00;99085.91;5120425;28;19934;-76
2023/01/04 06:38:33;;;;;;;;;;;;;;;3.16;100.00;99088.78;5120288;28;19938;-75
2023/01/04 06:41:00;;;;;;;;;;;;;;;3.30;100.00;99081.81;5119651;28;19984;-75
2023/01/04 06:43:27;;;;;;;;;;;;;;;3.44;100.00;99078.31;5098373;28;19959;-76
2023/01/04 06:45:53;;;;;;;;;;;;;;;3.25;100.00;99079.75;5118987;28;19985;-75
2023/01/04 06:48:20;;;;;;;;;;;;;;;3.42;100.00;99087.41;5101725;28;19966;-75
2023/01/04 06:50:46;;;;;;;;;;;;;;;3.43;100.00;99089.06;5118498;28;19923;-75
2023/01/04 06:53:12;;;;;;;;;;;;;;;3.24;100.00;99090.50;5116229;28;19975;-75
2023/01/04 06:55:39;;;;;;;;;;;;;;;3.33;100.00;99088.56;5098725;28;20023;-75
2023/01/04 06:58:06;;;;;;;;;;;;;;;3.31;100.00;99085.28;5120335;28;19923;-76
2023/01/04 07:00:33;;;;;;;;;;;;;;;3.29;100.00;99088.09;5101805;28;19975;-75
2023/01/04 07:02:59;;;;;;;;;;;;;;;3.33;100.00;99097.28;5098036;28;19988;-75
2023/01/04 07:05:25;;;;;;;;;;;;;;;3.39;100.00;99090.44;5097616;28;19958;-76
2023/01/04 07:07:52;;;;;;;;;;;;;;;3.47;100.00;99092.94;5099952;28;20509;-75
2023/01/04 07:10:18;;;;;;;;;;;;;;;3.19;100.00;99087.59;5119599;28;19924;-75
2023/01/04 07:12:45;;;;;;;;;;;;;;;3.28;100.00;99080.38;5099918;28;20425;-75
2023/01/04 07:15:13;;;;;;;;;;;;;;;3.20;100.00;99079.50;5115923;28;19997;-75
2023/01/04 07:17:39;;;;;;;;;;;;;;;3.19;100.00;99083.13;5097684;28;19987;-75
2023/01/04 07:20:06;;;;;;;;;;;;;;;3.23;100.00;99083.56;5101152;28;19924;-75
2023/01/04 07:22:32;;;;;;;;;;;;;;;3.24;100.00;99070.19;5119669;28;19927;-75
2023/01/04 07:24:59;;;;;;;;;;;;;;;3.21;100.00;99086.41;5090001;28;19983;-75
2023/01/04 07:27:25;;;;;;;;;;;;;;;3.22;100.00;99069.56;5096146;28;19942;-77
2023/01/04 07:29:51;;;;;;;;;;;;;;;3.23;100.00;99073.00;5135861;27;19927;-76
2023/01/04 07:32:19;;;;;;;;;;;;;;;3.35;100.00;99081.25;5097822;28;19983;-76
2023/01/04 07:34:45;;;;;;;;;;;;;;;3.57;100.00;99072.31;5116734;28;19936;-76
2023/01/04 07:37:13;;;;;;;;;;;;;;;3.57;100.00;99053.84;5100040;28;19927;-77
2023/01/04 07:39:40;;;;;;;;;;;;;;;3.68;100.00;99055.97;5100146;28;19950;-76
2023/01/04 07:42:06;;;;;;;;;;;;;;;3.92;100.00;99047.63;5115210;28;19919;-76
2023/01/04 07:44:33;;;;;;;;;;;;;;;3.58;100.00;99052.84;5115152;28;20043;-76
2023/01/04 07:46:59;;;;;;;;;;;;;;;3.50;100.00;99045.03;5118010;28;19966;-76
2023/01/04 07:49:27;;;;;;;;;;;;;;;3.67;100.00;99049.03;5118707;28;19927;-76
2023/01/04 07:51:53;;;;;;;;;;;;;;;3.51;100.00;99044.03;5097998;28;19955;-76
2023/01/04 07:54:19;;;;;;;;;;;;;;;3.84;100.00;99039.03;5121378;28;19953;-77
2023/01/04 07:56:47;;;;;;;;;;;;;;;3.94;100.00;99042.13;5117315;28;19951;-76
2023/01/04 07:59:14;;;;;;;;;;;;;;;3.72;100.00;99042.19;5096867;28;19928;-76
2023/01/04 08:01:41;;;;;;;;;;;;;;;4.02;100.00;99037.53;5098428;28;19966;-76
2023/01/04 08:04:08;;;;;;;;;;;;;;;3.76;100.00;99039.97;5118889;28;20448;-76
2023/01/04 08:06:36;;;;;;;;;;;;;;;3.70;100.00;99035.47;5100329;28;20039;-76
2023/01/04 08:09:04;;;;;;;;;;;;;;;3.55;100.00;99037.38;5114971;28;19935;-76
2023/01/04 08:11:30;;;;;;;;;;;;;;;3.57;100.00;99041.44;5096689;28;20652;-76
2023/01/04 08:13:57;;;;;;;;;;;;;;;3.58;100.00;99029.88;5099703;28;19938;-77
2023/01/04 08:16:26;;;;;;;;;;;;;;;3.65;100.00;99029.94;5119305;28;19920;-76
2023/01/04 08:18:53;;;;;;;;;;;;;;;3.61;100.00;99036.59;5120357;28;20106;-76
2023/01/04 08:21:19;;;;;;;;;;;;;;;3.78;100.00;99045.88;5115327;28;19971;-76
2023/01/04 08:23:47;;;;;;;;;;;;;;;3.65;100.00;99035.22;5115404;28;20020;-76
2023/01/04 08:26:14;;;;;;;;;;;;;;;3.87;100.00;99038.63;5112472;28;19927;-76
2023/01/04 08:28:41;;;;;;;;;;;;;;;3.98;100.00;99031.00;5118637;28;19994;-76
2023/01/04 08:31:09;;;;;;;;;;;;;;;3.96;100.00;99037.47;5115490;28;19995;-76
2023/01/04 08:33:36;;;;;;;;;;;;;;;4.00;100.00;99031.59;5097059;28;19931;-76
2023/01/04 08:36:06;;;;;;;;;;;;;;;4.07;100.00;99029.81;5106641;28;19935;-76
2023/01/04 08:38:32;;;;;;;;;;;;;;;3.94;100.00;99026.28;5106351;28;19992;-76
2023/01/04 08:41:00;;;;;;;;;;;;;;;4.06;100.00;99012.31;5106921;28;20011;-76
2023/01/04 08:43:27;;;;;;;;;;;;;;;4.05;100.00;98996.66;5106718;28;19924;-76
2023/01/04 08:45:53;;;;;;;;;;;;;;;3.92;100.00;99002.69;5106333;28;19928;-76
2023/01/04 08:48:19;;;;;;;;;;;;;;;3.96;100.00;98995.19;5092049;28;19931;-77
2023/01/04 08:50:46;;;;;;;;;;;;;;;3.98;100.00;98977.31;5110715;28;20007;-77
2023/01/04 08:53:13;;;;;;;;;;;;;;;3.99;100.00;98981.59;5094687;28;19984;-76
2023/01/04 08:55:39;;;;;;;;;;;;;;;3.95;100.00;98981.16;5101171;28;19924;-76
2023/01/04 08:58:07;;;;;;;;;;;;;;;4.02;100.00;98971.44;5122211;28;19974;-76
2023/01/04 09:00:33;;;;;;;;;;;;;;;3.96;100.00;98971.41;5102866;28;19934;-76
2023/01/04 09:02:59;;;;;;;;;;;;;;;3.97;100.00;98962.44;5100083;28;19931;-77
2023/01/04 09:05:27;;;;;;;;;;;;;;;4.02;100.00;98962.69;5119665;28;19924;-77
2023/01/04 09:07:54;;;;;;;;;;;;;;;4.09;100.00;98963.53;5121250;28;20196;-76
2023/01/04 09:10:20;;;;;;;;;;;;;;;4.22;100.00;98963.59;5103917;28;19958;-76
2023/01/04 09:15:28;;;;;;;;;;;;;;;4.39;100.00;98964.91;5099984;28;19960;-77
2023/01/04 09:17:54;;;;;;;;;;;;;;;4.47;100.00;98966.56;5120341;28;19920;-77
2023/01/04 09:20:21;;;;;;;;;;;;;;;4.46;100.00;98954.31;5121174;28;19928;-76
2023/01/04 09:22:47;;;;;;;;;;;;;;;4.51;100.00;98967.78;5119967;28;19923;-77
2023/01/04 09:25:13;;;;;;;;;;;;;;;4.52;100.00;98964.94;5090911;28;19932;-76
2023/01/04 09:27:40;;;;;;;;;;;;;;;4.51;100.00;98963.31;5099760;28;19932;-77
2023/01/04 09:30:07;;;;;;;;;;;;;;;4.61;100.00;98969.03;5102616;28;19923;-77
2023/01/04 09:32:34;;;;;;;;;;;;;;;4.64;100.00;98958.06;5121301;28;19970;-76
2023/01/04 09:35:01;;;;;;;;;;;;;;;4.61;100.00;98971.69;5099314;28;19980;-76
2023/01/04 09:37:27;;;;;;;;;;;;;;;4.57;100.00;98959.06;5117794;28;19931;-75
2023/01/04 09:39:53;;;;;;;;;;;;;;;4.61;100.00;98958.44;5120511;28;19920;-75
2023/01/04 09:42:23;;;;;;;;;;;;;;;4.70;100.00;98957.28;5102963;28;19924;-76
2023/01/04 09:44:51;;;;;;;;;;;;;;;4.66;100.00;98950.75;5119606;28;19934;-76
2023/01/04 09:47:21;;;;;;;;;;;;;;;4.68;100.00;98943.41;5117903;28;19931;-77
2023/01/04 09:49:51;;;;;;;;;;;;;;;4.66;100.00;98942.00;5101707;28;19924;-75
2023/01/04 09:52:20;;;;;;;;;;;;;;;4.79;100.00;98939.38;5103762;28;19923;-76
2023/01/04 09:54:48;;;;;;;;;;;;;;;4.81;100.00;98927.56;5121744;28;20003;-76
2023/01/04 09:57:18;;;;;;;;;;;;;;;4.86;100.00;98929.59;5099521;28;19924;-75
2023/01/04 09:59:45;;;;;;;;;;;;;;;4.90;100.00;98921.06;5118235;28;19924;-76
2023/01/04 10:02:15;;;;;;;;;;;;;;;4.92;100.00;98920.84;5121829;28;20405;-76
2023/01/04 10:04:44;;;;;;;;;;;;;;;4.94;100.00;98910.06;5121154;28;19949;-76
2023/01/04 10:07:17;;;;;;;;;;;;;;;4.97;100.00;98909.66;5118172;28;19966;-75
2023/01/04 10:09:43;;;;;;;;;;;;;;;5.07;100.00;98900.31;5100836;28;19928;-76
2023/01/04 10:12:15;;;;;;;;;;;;;;;5.14;100.00;98908.25;5121277;28;19994;-76
2023/01/04 10:14:49;;;;;;;;;;;;;;;5.20;100.00;98894.22;5102059;28;19924;-76
2023/01/04 10:17:23;;;;;;;;;;;;;;;5.25;100.00;98887.28;5117743;28;20392;-76
2023/01/04 10:20:01;;;;;;;;;;;;;;;5.28;100.00;98886.88;5119064;28;19957;-75
2023/01/04 10:22:33;;;;;;;;;;;;;;;5.35;100.00;98886.88;5102253;28;19931;-77
2023/01/04 10:25:07;;;;;;;;;;;;;;;5.42;100.00;98887.66;5090294;28;19924;-75
2023/01/04 10:27:41;;;;;;;;;;;;;;;5.49;100.00;98879.69;5098197;28;19924;-76
2023/01/04 10:30:16;;;;;;;;;;;;;;;5.58;100.00;98881.09;5116572;28;19971;-76
2023/01/04 10:32:43;;;;;;;;;;;;;;;5.59;100.00;98861.53;5117323;28;19936;-75
2023/01/04 10:35:18;;;;;;;;;;;;;;;5.65;100.00;98877.44;5101635;28;19930;-76
2023/01/04 10:37:46;;;;;;;;;;;;;;;5.66;100.00;98862.34;5118988;28;19987;-76
2023/01/04 10:40:14;;;;;;;;;;;;;;;5.72;100.00;98854.38;5098365;28;19932;-79
2023/01/04 10:42:45;;;;;;;;;;;;;;;5.75;100.00;98843.34;5098969;28;19924;-76
2023/01/04 10:45:15;;;;;;;;;;;;;;;5.83;100.00;98855.56;5120015;28;19924;-76
2023/01/04 10:47:46;;;;;;;;;;;;;;;5.81;100.00;98849.66;5100730;28;19987;-75
2023/01/04 10:50:17;;;;;;;;;;;;;;;5.78;100.00;98840.28;5116414;28;19988;-75
2023/01/04 10:52:46;;;;;;;;;;;;;;;5.81;100.00;98849.66;5098853;28;19928;-75
2023/01/04 10:55:16;;;;;;;;;;;;;;;5.77;100.00;98833.34;5104684;28;19925;-75
2023/01/04 10:57:45;;;;;;;;;;;;;;;5.76;100.00;98828.25;5098460;28;20020;-75
2023/01/04 11:00:16;;;;;;;;;;;;;;;5.77;100.00;98827.22;5101292;28;19962;-75
2023/01/04 11:02:45;;;;;;;;;;;;;;;5.75;100.00;98824.00;5118832;28;20051;-76
2023/01/04 11:05:18;;;;;;;;;;;;;;;5.79;100.00;98826.00;5116086;28;19920;-77
2023/01/04 11:07:47;;;;;;;;;;;;;;;5.82;100.00;98820.28;5098962;28;19924;-75
2023/01/04 11:10:20;;;;;;;;;;;;;;;5.78;100.00;98811.13;5100523;28;20492;-76
2023/01/04 11:12:46;;;;;;;;;;;;;;;5.82;100.00;98806.19;5118446;28;19966;-77
2023/01/04 11:15:12;;;;;;;;;;;;;;;5.79;100.00;98810.09;5116256;28;19924;-77
2023/01/04 11:17:41;;;;;;;;;;;;;;;5.73;100.00;98804.81;5116399;28;20039;-76
2023/01/04 11:20:07;;;;;;;;;;;;;;;5.78;100.00;98803.19;5101290;28;19979;-76
2023/01/04 11:22:37;;;;;;;;;;;;;;;5.77;100.00;98803.38;5101511;28;19981;-76
2023/01/04 11:25:07;;;;;;;;;;;;;;;5.82;100.00;98803.53;5107167;28;19924;-76
2023/01/04 11:27:40;;;;;;;;;;;;;;;5.84;100.00;98804.16;5098206;28;19928;-76
2023/01/04 11:30:14;;;;;;;;;;;;;;;5.84;100.00;98798.88;5099120;28;19924;-76
2023/01/04 11:32:44;;;;;;;;;;;;;;;5.83;100.00;98797.22;5098475;28;19924;-76
2023/01/04 11:35:10;;;;;;;;;;;;;;;5.83;100.00;98791.94;5119762;28;19924;-76
2023/01/04 11:37:38;;;;;;;;;;;;;;;5.80;100.00;98789.69;5101527;28;19931;-76
2023/01/04 11:40:12;;;;;;;;;;;;;;;5.87;100.00;98783.38;5114398;28;19924;-76
2023/01/04 11:42:40;;;;;;;;;;;;;;;6.02;100.00;98782.28;5097593;28;19930;-76
2023/01/04 11:45:16;;;;;;;;;;;;;;;6.03;100.00;98775.97;5119218;28;19931;-76
2023/01/04 11:47:47;;;;;;;;;;;;;;;6.00;100.00;98777.22;5100310;28;19941;-76
2023/01/04 11:50:33;;;;;;;;;;;;;;;6.07;100.00;98772.66;5115492;28;20539;-76
2023/01/04 11:52:59;;;;;;;;;;;;;;;6.06;100.00;98767.59;5100469;28;20405;-77
2023/01/04 11:55:27;;;;;;;;;;;;;;;6.05;100.00;98756.16;5102666;28;20338;-76
2023/01/04 11:58:07;;;;;;;;;;;;;;;6.12;100.00;98751.63;5099926;28;19989;-76
2023/01/04 12:00:33;;;;;;;;;;;;;;;6.13;100.00;98758.53;5119713;28;19931;-77
2023/01/04 12:03:10;;;;;;;;;;;;;;;6.04;100.00;98754.53;5116716;28;19959;-77
2023/01/04 12:05:37;;;;;;;;;;;;;;;6.05;100.00;98739.44;5097878;28;19924;-76
2023/01/04 12:08:03;;;;;;;;;;;;;;;6.01;100.00;98748.81;5119505;28;19935;-76
2023/01/04 12:10:30;;;;;;;;;;;;;;;5.98;100.00;98750.91;5101396;28;19946;-76
2023/01/04 12:12:58;;;;;;;;;;;;;;;5.96;100.00;98744.19;5100727;28;19927;-76
2023/01/04 12:15:31;;;;;;;;;;;;;;;6.01;100.00;98732.91;5099894;28;19982;-76
2023/01/04 12:17:59;;;;;;;;;;;;;;;6.02;100.00;98745.16;5102441;28;19927;-76
2023/01/04 12:20:27;;;;;;;;;;;;;;;6.00;100.00;98734.78;5120769;28;19924;-76
2023/01/04 12:22:54;;;;;;;;;;;;;;;6.05;100.00;98734.94;5116963;28;19919;-75
2023/01/04 12:25:27;;;;;;;;;;;;;;;6.06;100.00;98719.84;5107897;28;19930;-75
2023/01/04 12:27:55;;;;;;;;;;;;;;;6.01;100.00;98712.53;5098519;28;19920;-76
2023/01/04 12:30:37;;;;;;;;;;;;;;;5.94;100.00;98709.13;5116715;28;19924;-76
2023/01/04 12:33:24;;;;;;;;;;;;;;;5.83;100.00;98705.28;5115011;28;21587;-75
2023/01/04 12:36:03;;;;;;;;;;;;;;;6.09;100.00;98709.63;5118039;28;19962;-75
2023/01/04 12:38:49;;;;;;;;;;;;;;;6.28;100.00;98708.66;5101228;28;19959;-74
2023/01/04 12:41:15;;;;;;;;;;;;;;;6.35;100.00;98682.91;5118216;28;19924;-75
2023/01/04 12:43:41;;;;;;;;;;;;;;;6.45;100.00;98674.44;5119778;28;19924;-75
2023/01/04 12:49:41;;;;;;;;;;;;;;;6.47;100.00;98670.53;5116762;28;19919;-76
2023/01/04 12:52:26;;;;;;;;;;;;;;;6.53;100.00;98674.16;5088763;28;19931;-75
2023/01/04 12:54:54;;;;;;;;;;;;;;;6.57;100.00;98658.63;5108100;28;19963;-75
2023/01/04 12:57:24;;;;;;;;;;;;;;;6.59;100.00;98664.53;5116348;28;19920;-75
2023/01/04 12:59:55;;;;;;;;;;;;;;;6.68;100.00;98671.19;5098805;28;20637;-76
2023/01/04 13:02:23;;;;;;;;;;;;;;;6.76;100.00;98673.53;5121251;28;19948;-76
2023/01/04 13:04:50;;;;;;;;;;;;;;;6.70;100.00;98664.63;5098340;28;19999;-76
2023/01/04 13:07:19;;;;;;;;;;;;;;;6.15;100.00;98658.38;5095992;28;19987;-76
2023/01/04 13:09:50;;;;;;;;;;;;;;;6.55;100.00;98661.50;5116187;28;20015;-75
2023/01/04 13:12:51;;;;;;;;;;;;;;;6.80;100.00;98650.84;5098857;28;19955;-74
2023/01/04 13:15:20;;;;;;;;;;;;;;;7.05;100.00;98651.59;5087163;28;19925;-73
2023/01/04 13:17:48;;;;;;;;;;;;;;;6.51;100.00;98649.69;5095803;28;19960;-73
2023/01/04 13:20:16;;;;;;;;;;;;;;;6.90;100.00;98651.16;5089200;28;19951;-73
2023/01/04 13:22:46;;;;;;;;;;;;;;;7.09;100.00;98663.38;5093245;28;19939;-74
2023/01/04 13:25:13;;;;;;;;;;;;;;;6.45;100.00;98651.38;5088508;28;19950;-73
2023/01/04 13:27:54;;;;;;;;;;;;;;;6.51;100.00;98647.84;5101351;28;20385;-73
2023/01/04 13:30:28;;;;;;;;;;;;;;;6.89;100.00;98638.91;5117547;28;19949;-73
2023/01/04 13:32:55;;;;;;;;;;;;;;;6.70;100.00;98635.41;5115033;28;19957;-73
2023/01/04 13:35:22;;;;;;;;;;;;;;;6.84;100.00;98630.78;5117350;28;19955;-73
2023/01/04 13:37:49;;;;;;;;;;;;;;;6.31;100.00;98627.84;5119183;28;19920;-72
2023/01/04 13:40:23;;;;;;;;;;;;;;;6.36;100.00;98620.03;5121230;28;19947;-73
2023/01/04 13:42:52;;;;;;;;;;;;;;;6.37;100.00;98621.69;5101399;28;19974;-73
2023/01/04 13:45:30;;;;;;;;;;;;;;;6.64;100.00;98623.03;5099271;28;19946;-73
2023/01/04 13:47:59;;;;;;;;;;;;;;;6.39;100.00;98609.00;5121147;28;19924;-73
2023/01/04 13:50:27;;;;;;;;;;;;;;;6.49;100.00;98614.63;5104012;28;19924;-73